Time;durP1;ratioP1;P1;durP2;ratioP2;P2;SDS_P1;SDS_P2;PMS_P1;PMS_P2;Temp;Humidity;BMP_temperature;BMP_pressure;BME280_temperature;BME280_humidity;BME280_pressure;Samples;Min_cycle;Max_cycle;Signal;HPM_P1;HPM_P2
2022/11/29 00:01:18;;;;;;;9.13;6.35;;;17.80;59.60;;;;;;5051427;28;20194;-71
2022/11/29 00:03:44;;;;;;;7.53;6.72;;;17.80;59.70;;;;;;5051929;28;20172;-73
2022/11/29 00:06:14;;;;;;;7.97;6.78;;;17.80;59.70;;;;;;5051405;28;20201;-72
2022/11/29 00:08:40;;;;;;;7.95;6.07;;;17.80;59.70;;;;;;5051816;28;20244;-72
2022/11/29 00:11:07;;;;;;;8.57;6.57;;;17.80;59.70;;;;;;5052050;28;20183;-72
2022/11/29 00:13:32;;;;;;;8.63;6.15;;;17.80;59.70;;;;;;5051127;28;20187;-72
2022/11/29 00:16:05;;;;;;;6.50;5.75;;;17.70;59.70;;;;;;5052241;28;20178;-72
2022/11/29 00:18:31;;;;;;;8.30;6.13;;;17.70;59.80;;;;;;5051678;28;20242;-72
2022/11/29 00:20:56;;;;;;;6.40;5.68;;;17.70;59.90;;;;;;5051270;28;20260;-72
2022/11/29 00:23:22;;;;;;;6.85;5.72;;;17.60;59.80;;;;;;5052637;28;20189;-72
2022/11/29 00:25:47;;;;;;;7.07;6.35;;;17.60;59.80;;;;;;5055786;28;20269;-72
2022/11/29 00:28:13;;;;;;;8.68;7.15;;;17.60;59.80;;;;;;5055058;28;20175;-72
2022/11/29 00:30:38;;;;;;;7.10;6.38;;;17.60;59.90;;;;;;5055666;28;20219;-72
2022/11/29 00:33:04;;;;;;;8.05;6.50;;;17.60;59.90;;;;;;5056020;28;20180;-72
2022/11/29 00:35:30;;;;;;;8.48;6.05;;;17.60;59.90;;;;;;5055092;28;20182;-72
2022/11/29 00:37:55;;;;;;;7.15;6.03;;;17.60;59.90;;;;;;5055829;28;20167;-72
2022/11/29 00:40:21;;;;;;;8.10;6.85;;;17.60;60.00;;;;;;5055839;28;20167;-72
2022/11/29 00:42:47;;;;;;;7.55;6.35;;;17.50;59.90;;;;;;5054781;28;20179;-72
2022/11/29 00:45:12;;;;;;;7.15;6.32;;;17.50;60.00;;;;;;5055624;28;20529;-70
2022/11/29 00:47:38;;;;;;;6.97;6.18;;;17.50;60.00;;;;;;5055098;28;20642;-71
2022/11/29 00:50:04;;;;;;;7.38;6.57;;;17.50;60.00;;;;;;5054841;28;20207;-71
2022/11/29 00:52:30;;;;;;;8.63;6.97;;;17.50;60.10;;;;;;5055558;28;20250;-71
2022/11/29 00:54:55;;;;;;;7.32;6.63;;;17.50;60.10;;;;;;5055307;28;20722;-71
2022/11/29 00:57:21;;;;;;;6.60;6.00;;;17.40;60.00;;;;;;5054589;28;20191;-70
2022/11/29 00:59:46;;;;;;;7.95;6.55;;;17.40;60.00;;;;;;5055298;28;20713;-71
2022/11/29 01:02:12;;;;;;;6.75;5.90;;;17.40;60.10;;;;;;5055430;28;20541;-71
2022/11/29 01:04:37;;;;;;;8.27;6.90;;;17.40;60.10;;;;;;5054444;28;20626;-73
2022/11/29 01:07:03;;;;;;;7.78;6.78;;;17.40;60.20;;;;;;5055099;28;20171;-71
2022/11/29 01:09:28;;;;;;;7.95;6.22;;;17.40;60.20;;;;;;5054507;28;20211;-72
2022/11/29 01:11:54;;;;;;;7.78;6.55;;;17.40;60.30;;;;;;5054901;28;20174;-72
2022/11/29 01:14:19;;;;;;;6.90;6.18;;;17.40;60.30;;;;;;5055204;28;20228;-71
2022/11/29 01:16:45;;;;;;;8.85;6.85;;;17.40;60.30;;;;;;5054076;28;20214;-72
2022/11/29 01:19:10;;;;;;;8.65;7.03;;;17.30;60.30;;;;;;5055208;28;20179;-71
2022/11/29 01:21:36;;;;;;;6.60;5.80;;;17.30;60.30;;;;;;5054543;28;20232;-72
2022/11/29 01:24:01;;;;;;;7.82;5.85;;;17.30;60.30;;;;;;5053050;28;20175;-71
2022/11/29 01:26:28;;;;;;;8.90;6.10;;;17.30;60.40;;;;;;5054742;28;20635;-71
2022/11/29 01:28:54;;;;;;;7.55;6.28;;;17.30;60.40;;;;;;5054348;28;20214;-71
2022/11/29 01:31:38;;;;;;;7.90;6.15;;;17.30;60.40;;;;;;5054288;28;20178;-70
2022/11/29 01:34:05;;;;;;;7.40;6.28;;;17.30;60.40;;;;;;5054725;28;20226;-72
2022/11/29 01:36:30;;;;;;;7.90;7.13;;;17.30;60.40;;;;;;5054722;28;20259;-72
2022/11/29 01:39:00;;;;;;;7.13;6.43;;;17.30;60.50;;;;;;5053841;28;20608;-72
2022/11/29 01:41:27;;;;;;;7.57;6.10;;;17.30;60.60;;;;;;5054533;28;20171;-71
2022/11/29 01:43:59;;;;;;;9.02;6.68;;;17.20;60.40;;;;;;5054508;28;20183;-70
2022/11/29 01:46:26;;;;;;;8.52;6.28;;;17.20;60.50;;;;;;5053912;28;20183;-70
2022/11/29 01:48:53;;;;;;;6.68;6.00;;;17.20;60.50;;;;;;5054141;28;20286;-70
2022/11/29 01:51:18;;;;;;;10.18;6.35;;;17.20;60.50;;;;;;5054390;28;20179;-70
2022/11/29 01:53:44;;;;;;;6.60;5.90;;;17.20;60.60;;;;;;5053370;28;20229;-71
2022/11/29 01:56:09;;;;;;;8.63;7.15;;;17.20;60.50;;;;;;5054606;28;20175;-70
2022/11/29 01:58:35;;;;;;;7.05;6.15;;;17.20;60.60;;;;;;5053544;28;20175;-71
2022/11/29 02:01:00;;;;;;;7.88;7.07;;;17.20;60.60;;;;;;5054333;28;20563;-70
2022/11/29 02:03:26;;;;;;;8.68;6.43;;;17.20;60.60;;;;;;5054292;28;20633;-72
2022/11/29 02:05:52;;;;;;;7.13;6.43;;;17.20;60.60;;;;;;5053205;28;20276;-71
2022/11/29 02:08:35;;;;;;;7.10;6.40;;;17.10;60.60;;;;;;5052800;28;20273;-71
2022/11/29 02:11:27;;;;;;;6.68;5.90;;;17.10;60.70;;;;;;5053162;28;20241;-71
2022/11/29 02:14:21;;;;;;;7.70;6.13;;;17.10;60.70;;;;;;5051796;28;20214;-71
2022/11/29 02:16:59;;;;;;;7.40;6.10;;;17.10;60.70;;;;;;5053582;28;20238;-71
2022/11/29 02:19:24;;;;;;;6.38;5.78;;;17.10;60.70;;;;;;5052689;28;20233;-71
2022/11/29 02:21:51;;;;;;;7.45;6.50;;;17.10;60.80;;;;;;5052939;28;20175;-71
2022/11/29 02:24:41;;;;;;;8.13;6.45;;;17.10;60.80;;;;;;5053940;28;20270;-71
2022/11/29 02:27:21;;;;;;;6.35;5.63;;;17.00;60.70;;;;;;5052254;28;20178;-71
2022/11/29 02:30:12;;;;;;;6.88;5.88;;;17.10;60.90;;;;;;5052230;28;20206;-70
2022/11/29 02:33:12;;;;;;;7.47;6.70;;;17.10;60.90;;;;;;5052058;28;20633;-73
2022/11/29 02:36:02;;;;;;;6.68;5.97;;;17.10;60.80;;;;;;5051256;28;20657;-72
2022/11/29 02:39:07;;;;;;;7.78;6.68;;;17.00;60.80;;;;;;5053350;28;20659;-71
2022/11/29 02:41:35;;;;;;;7.65;6.55;;;17.00;60.90;;;;;;5051451;28;20595;-71
2022/11/29 02:44:31;;;;;;;7.65;6.82;;;17.00;60.90;;;;;;5053480;28;20194;-71
2022/11/29 02:47:35;;;;;;;7.60;6.40;;;17.00;60.80;;;;;;5051704;28;20177;-70
2022/11/29 02:50:21;;;;;;;6.82;6.15;;;17.00;60.90;;;;;;5051140;28;20211;-70
2022/11/29 02:52:55;;;;;;;7.63;6.22;;;17.00;60.90;;;;;;5053121;28;20289;-70
2022/11/29 02:55:39;;;;;;;7.88;6.50;;;17.00;61.00;;;;;;5051507;28;20236;-70
2022/11/29 02:58:19;;;;;;;9.02;6.70;;;17.00;61.00;;;;;;5053157;28;20228;-69
2022/11/29 03:01:03;;;;;;;8.27;6.40;;;17.00;60.90;;;;;;5051783;28;20233;-71
2022/11/29 03:03:34;;;;;;;8.60;6.63;;;17.00;60.90;;;;;;5035225;28;20178;-71
2022/11/29 03:06:15;;;;;;;8.50;6.88;;;17.00;61.00;;;;;;5035538;28;20178;-71
2022/11/29 03:09:34;;;;;;;8.80;6.85;;;16.90;61.00;;;;;;5034906;28;20185;-71
2022/11/29 03:12:15;;;;;;;7.68;6.75;;;17.00;61.00;;;;;;5030128;28;20638;-70
2022/11/29 03:14:49;;;;;;;7.05;6.22;;;16.90;61.10;;;;;;5051325;28;20183;-72
2022/11/29 03:17:30;;;;;;;8.65;6.68;;;16.90;61.00;;;;;;5050732;28;20226;-71
2022/11/29 03:20:07;;;;;;;8.07;6.38;;;16.90;61.10;;;;;;5051773;28;20664;-71
2022/11/29 03:23:13;;;;;;;8.32;6.90;;;16.90;61.10;;;;;;5051806;28;20190;-72
2022/11/29 03:25:42;;;;;;;9.30;6.95;;;16.90;61.10;;;;;;5048690;28;20194;-71
2022/11/29 03:28:19;;;;;;;8.02;6.90;;;16.90;61.10;;;;;;5051772;28;20637;-71
2022/11/29 03:31:10;;;;;;;9.00;7.05;;;16.90;61.20;;;;;;5049624;28;20268;-71
2022/11/29 03:33:59;;;;;;;7.78;6.97;;;16.80;61.00;;;;;;5051120;28;20183;-71
2022/11/29 03:36:39;;;;;;;9.43;7.53;;;16.90;61.20;;;;;;5050697;28;20298;-71
2022/11/29 03:39:06;;;;;;;7.38;6.55;;;16.80;61.10;;;;;;5034083;28;20586;-72
2022/11/29 03:41:32;;;;;;;7.70;6.43;;;16.80;61.10;;;;;;5033876;28;20175;-71
2022/11/29 03:44:19;;;;;;;7.75;6.88;;;16.80;61.10;;;;;;5050381;28;20175;-69
2022/11/29 03:47:28;;;;;;;8.02;6.75;;;16.80;61.10;;;;;;5051563;28;20211;-71
2022/11/29 03:49:58;;;;;;;7.95;7.10;;;16.80;61.10;;;;;;5017922;28;20763;-70
2022/11/29 03:52:41;;;;;;;7.88;6.88;;;16.80;61.10;;;;;;4996436;28;20172;-70
2022/11/29 03:55:27;;;;;;;7.82;7.03;;;16.80;61.10;;;;;;5043078;28;20190;-71
2022/11/29 03:58:30;;;;;;;6.95;6.25;;;16.80;61.20;;;;;;5050058;28;20257;-70
2022/11/29 04:01:16;;;;;;;8.18;6.88;;;16.80;61.20;;;;;;5051518;28;20171;-71
2022/11/29 04:04:12;;;;;;;7.03;6.32;;;16.80;61.30;;;;;;5051190;28;20630;-72
2022/11/29 04:06:56;;;;;;;7.40;6.63;;;16.80;61.20;;;;;;5050415;28;20182;-73
2022/11/29 04:09:42;;;;;;;8.65;6.70;;;16.80;61.30;;;;;;5051632;28;20233;-71
2022/11/29 04:12:44;;;;;;;8.88;6.93;;;16.70;61.20;;;;;;5051308;28;20573;-72
2022/11/29 04:15:15;;;;;;;8.13;6.38;;;16.70;61.30;;;;;;5050187;28;20185;-71
2022/11/29 04:17:44;;;;;;;8.93;7.32;;;16.80;61.30;;;;;;5015678;28;1021631;-72
2022/11/29 04:20:27;;;;;;;7.25;6.28;;;16.70;61.20;;;;;;5051365;28;20190;-72
2022/11/29 04:23:02;;;;;;;7.82;6.70;;;16.70;61.20;;;;;;5051851;28;20222;-71
2022/11/29 04:25:42;;;;;;;7.50;6.55;;;16.70;61.20;;;;;;5052040;28;20198;-70
2022/11/29 04:28:16;;;;;;;7.55;6.07;;;16.70;61.20;;;;;;5051515;28;20596;-71
2022/11/29 04:31:11;;;;;;;7.00;5.90;;;16.70;61.20;;;;;;5050675;28;20237;-72
2022/11/29 04:34:02;;;;;;;7.97;6.43;;;16.70;61.30;;;;;;5049826;28;20826;-71
2022/11/29 04:36:37;;;;;;;7.95;6.30;;;16.70;61.30;;;;;;5052129;28;20208;-72
2022/11/29 04:39:29;;;;;;;7.18;6.35;;;16.70;61.20;;;;;;5050632;28;20667;-71
2022/11/29 04:42:13;;;;;;;9.27;7.00;;;16.70;61.30;;;;;;5035134;28;20179;-71
2022/11/29 04:44:48;;;;;;;8.68;6.82;;;16.70;61.30;;;;;;5051817;28;20253;-71
2022/11/29 04:47:38;;;;;;;8.27;6.85;;;16.70;61.30;;;;;;5050741;28;20178;-70
2022/11/29 04:50:22;;;;;;;7.22;6.53;;;16.70;61.30;;;;;;5050479;28;20215;-70
2022/11/29 04:52:54;;;;;;;8.20;6.75;;;16.60;61.40;;;;;;5051377;28;20269;-72
2022/11/29 04:55:43;;;;;;;7.55;6.82;;;16.60;61.30;;;;;;5050054;28;20229;-70
2022/11/29 04:58:27;;;;;;;8.13;6.75;;;16.60;61.40;;;;;;5050715;28;20186;-70
2022/11/29 05:01:16;;;;;;;9.30;6.75;;;16.60;61.40;;;;;;5050267;28;20553;-72
2022/11/29 05:03:46;;;;;;;8.10;6.78;;;16.60;61.40;;;;;;5035839;28;20179;-71
2022/11/29 05:06:33;;;;;;;8.55;6.93;;;16.60;61.40;;;;;;5051488;28;20183;-71
2022/11/29 05:09:20;;;;;;;6.82;6.13;;;16.60;61.40;;;;;;5050988;28;20191;-72
2022/11/29 05:12:16;;;;;;;7.43;6.63;;;16.60;61.40;;;;;;5055025;28;20247;-71
2022/11/29 05:15:16;;;;;;;7.18;6.28;;;16.60;61.40;;;;;;5054225;28;20175;-71
2022/11/29 05:18:04;;;;;;;8.10;7.05;;;16.60;61.50;;;;;;5037588;28;20729;-72
2022/11/29 05:20:44;;;;;;;9.07;6.88;;;16.50;61.40;;;;;;5054244;28;20268;-72
2022/11/29 05:23:25;;;;;;;8.07;6.93;;;16.50;61.40;;;;;;5037974;28;20174;-72
2022/11/29 05:25:56;;;;;;;7.70;6.50;;;16.50;61.50;;;;;;5038045;28;20194;-72
2022/11/29 05:28:56;;;;;;;8.18;6.55;;;16.50;61.50;;;;;;5053531;28;20170;-72
2022/11/29 05:31:49;;;;;;;7.70;6.90;;;16.50;61.50;;;;;;5053269;28;20194;-72
2022/11/29 05:34:18;;;;;;;7.82;6.50;;;16.50;61.50;;;;;;5037615;28;20183;-72
2022/11/29 05:36:55;;;;;;;8.27;6.40;;;16.50;61.50;;;;;;5053905;28;20240;-73
2022/11/29 05:39:29;;;;;;;7.70;6.68;;;16.50;61.50;;;;;;5054899;28;20179;-72
2022/11/29 05:41:58;;;;;;;6.28;5.68;;;16.50;61.60;;;;;;5054545;28;20261;-71
2022/11/29 05:44:42;;;;;;;7.68;6.40;;;16.50;61.60;;;;;;5054116;28;20178;-71
2022/11/29 05:47:09;;;;;;;7.03;6.32;;;16.50;61.60;;;;;;5053342;28;20649;-70
2022/11/29 05:50:09;;;;;;;9.63;7.22;;;16.50;61.70;;;;;;5036580;28;20242;-72
2022/11/29 05:52:48;;;;;;;6.80;5.93;;;16.50;61.60;;;;;;5052305;28;20541;-72
2022/11/29 05:55:29;;;;;;;6.97;6.13;;;16.50;61.70;;;;;;5053225;28;20175;-71
2022/11/29 05:58:05;;;;;;;7.22;6.40;;;16.40;61.60;;;;;;5052294;28;20178;-71
2022/11/29 06:00:46;;;;;;;7.65;6.35;;;16.50;61.50;;;;;;5053160;28;20171;-72
2022/11/29 06:03:20;;;;;;;6.88;6.10;;;16.50;61.70;;;;;;5053148;28;20175;-72
2022/11/29 06:05:52;;;;;;;6.85;6.03;;;16.50;61.70;;;;;;5052007;28;20183;-72
2022/11/29 06:08:52;;;;;;;7.22;6.53;;;16.50;61.70;;;;;;5036939;28;20664;-72
2022/11/29 06:11:24;;;;;;;7.10;5.85;;;16.40;61.60;;;;;;5039609;28;20191;-71
2022/11/29 06:14:23;;;;;;;8.57;7.32;;;16.40;61.60;;;;;;5051602;28;20178;-73
2022/11/29 06:17:09;;;;;;;7.50;6.65;;;16.40;61.70;;;;;;5053868;28;20179;-72
2022/11/29 06:20:03;;;;;;;9.25;6.55;;;16.40;62.10;;;;;;5052905;28;20189;-72
2022/11/29 06:22:53;;;;;;;7.43;6.22;;;16.40;61.70;;;;;;5044492;28;20309;-73
2022/11/29 06:25:41;;;;;;;7.95;6.38;;;16.40;61.80;;;;;;5054241;28;20175;-72
2022/11/29 06:28:40;;;;;;;7.78;6.45;;;16.40;61.70;;;;;;5036311;28;20178;-72
2022/11/29 06:31:27;;;;;;;7.07;6.20;;;16.40;61.70;;;;;;5052563;28;20778;-71
2022/11/29 06:34:08;;;;;;;7.70;6.85;;;16.40;61.80;;;;;;5036157;28;20175;-72
2022/11/29 06:36:34;;;;;;;8.95;6.53;;;16.40;61.70;;;;;;5053268;28;20175;-72
2022/11/29 06:39:00;;;;;;;8.00;6.93;;;16.40;61.80;;;;;;5053618;28;20186;-72
2022/11/29 06:41:25;;;;;;;7.15;6.13;;;16.40;61.70;;;;;;5052637;28;20652;-72
2022/11/29 06:43:51;;;;;;;10.38;6.88;;;16.40;61.70;;;;;;5053262;28;20190;-71
2022/11/29 06:46:58;;;;;;;8.88;6.90;;;16.40;61.80;;;;;;5053268;28;20262;-71
2022/11/29 06:49:36;;;;;;;10.88;7.50;;;16.40;61.90;;;;;;5030951;28;20211;-70
2022/11/29 06:52:11;;;;;;;8.70;6.88;;;16.30;61.80;;;;;;5049042;28;20658;-72
2022/11/29 06:54:49;;;;;;;7.82;6.80;;;16.30;61.80;;;;;;5035533;28;20186;-72
2022/11/29 06:57:52;;;;;;;7.57;6.32;;;16.30;61.80;;;;;;5052100;28;20179;-71
2022/11/29 07:00:25;;;;;;;7.90;6.75;;;16.30;61.90;;;;;;5052203;28;20175;-70
2022/11/29 07:03:10;;;;;;;6.72;6.00;;;16.30;61.90;;;;;;5051114;28;20236;-72
2022/11/29 07:05:36;;;;;;;7.07;6.30;;;16.30;62.00;;;;;;5052859;28;20171;-72
2022/11/29 07:08:04;;;;;;;7.78;6.63;;;16.30;61.90;;;;;;5052670;28;20634;-72
2022/11/29 07:10:33;;;;;;;7.40;6.03;;;16.30;61.80;;;;;;5053166;28;20317;-72
2022/11/29 07:12:59;;;;;;;7.00;6.20;;;16.30;61.80;;;;;;5051766;28;20621;-71
2022/11/29 07:15:26;;;;;;;7.60;6.38;;;16.40;61.90;;;;;;5052370;28;20179;-72
2022/11/29 07:18:20;;;;;;;7.22;5.97;;;16.40;61.70;;;;;;5052331;28;20760;-72
2022/11/29 07:20:51;;;;;;;7.00;5.90;;;16.40;61.60;;;;;;5051380;28;20190;-72
2022/11/29 07:23:35;;;;;;;8.43;7.05;;;16.40;61.70;;;;;;5052149;28;20194;-72
2022/11/29 07:26:15;;;;;;;7.30;6.18;;;16.40;61.60;;;;;;5052799;28;20174;-71
2022/11/29 07:28:53;;;;;;;8.32;6.55;;;16.40;61.60;;;;;;5051240;28;20520;-72
2022/11/29 07:31:37;;;;;;;7.43;6.15;;;16.40;61.60;;;;;;5052218;28;20175;-70
2022/11/29 07:34:35;;;;;;;8.52;6.95;;;16.40;61.60;;;;;;5052476;28;20178;-71
2022/11/29 07:37:13;;;;;;;8.02;6.72;;;16.40;61.70;;;;;;5050773;28;20187;-71
2022/11/29 07:39:58;;;;;;;7.03;6.25;;;16.50;61.60;;;;;;5051200;28;20183;-72
2022/11/29 07:43:03;;;;;;;7.45;6.35;;;16.40;61.50;;;;;;5051363;28;20205;-71
2022/11/29 07:45:35;;;;;;;6.90;5.97;;;16.50;61.50;;;;;;5050708;28;20183;-70
2022/11/29 07:48:00;;;;;;;7.38;6.13;;;16.50;61.40;;;;;;5035650;28;20262;-71
2022/11/29 07:50:26;;;;;;;7.88;6.25;;;16.50;61.30;;;;;;5051841;28;20310;-71
2022/11/29 07:52:51;;;;;;;8.32;6.45;;;16.60;61.30;;;;;;5050874;28;20252;-71
2022/11/29 07:55:21;;;;;;;8.20;6.70;;;16.50;61.20;;;;;;5034513;28;20190;-72
2022/11/29 07:57:47;;;;;;;8.68;6.78;;;16.50;61.20;;;;;;5050112;28;20225;-70
2022/11/29 08:00:13;;;;;;;8.35;6.53;;;16.50;61.40;;;;;;5052319;28;20179;-70
2022/11/29 08:02:39;;;;;;;7.18;6.10;;;16.50;61.30;;;;;;5052243;28;20179;-70
2022/11/29 08:05:05;;;;;;;9.15;6.50;;;16.50;61.60;;;;;;5051715;28;20203;-70
2022/11/29 08:07:33;;;;;;;9.43;6.15;;;16.50;62.00;;;;;;5052353;28;20262;-71
2022/11/29 08:09:58;;;;;;;8.43;5.95;;;16.50;62.40;;;;;;5052068;28;20215;-71
2022/11/29 08:12:24;;;;;;;8.30;5.75;;;16.50;62.30;;;;;;5051685;28;20175;-69
2022/11/29 08:14:49;;;;;;;7.88;6.03;;;16.50;62.70;;;;;;5051836;28;20178;-69
2022/11/29 08:17:15;;;;;;;8.43;6.40;;;16.50;62.60;;;;;;5052052;28;20256;-68
2022/11/29 08:19:40;;;;;;;9.60;6.95;;;16.40;62.50;;;;;;5051320;28;20649;-69
2022/11/29 08:22:06;;;;;;;9.07;6.32;;;16.40;62.40;;;;;;5052192;28;20221;-69
2022/11/29 08:24:31;;;;;;;9.05;6.47;;;16.40;62.40;;;;;;5051854;28;20559;-70
2022/11/29 08:26:57;;;;;;;8.18;6.15;;;16.40;62.40;;;;;;5051310;28;20244;-69
2022/11/29 08:29:22;;;;;;;9.52;6.22;;;16.40;62.20;;;;;;5051884;28;20704;-69
2022/11/29 08:31:52;;;;;;;8.98;6.70;;;16.40;62.30;;;;;;5051745;28;20637;-69
2022/11/29 08:34:18;;;;;;;11.25;6.65;;;16.40;62.40;;;;;;5051406;28;20183;-69
2022/11/29 08:36:44;;;;;;;9.85;6.13;;;16.40;62.40;;;;;;5051691;28;20183;-70
2022/11/29 08:39:09;;;;;;;8.25;6.63;;;16.40;62.40;;;;;;5052118;28;20178;-69
2022/11/29 08:41:35;;;;;;;8.20;5.95;;;16.30;62.20;;;;;;5050925;28;20175;-69
2022/11/29 08:44:01;;;;;;;7.57;5.93;;;16.30;62.20;;;;;;5052021;28;20270;-69
2022/11/29 08:47:34;;;;;;;10.55;6.75;;;16.30;62.10;;;;;;5055969;28;20183;-68
2022/11/29 08:49:12;;;;;;;7.43;6.10;;;16.30;62.20;;;;;;5055548;28;20301;-69
2022/11/29 08:51:37;;;;;;;8.25;6.28;;;16.30;62.30;;;;;;5055463;28;20194;-69
2022/11/29 08:54:03;;;;;;;7.97;6.32;;;16.30;62.20;;;;;;5054980;28;20258;-68
2022/11/29 08:56:28;;;;;;;8.00;6.38;;;16.30;62.20;;;;;;5055574;28;20176;-69
2022/11/29 08:58:54;;;;;;;8.90;6.43;;;16.30;62.20;;;;;;5055460;28;20256;-69
2022/11/29 09:01:19;;;;;;;7.95;6.25;;;16.30;62.20;;;;;;5054774;28;20476;-69
2022/11/29 09:04:04;;;;;;;7.78;6.40;;;16.30;62.20;;;;;;5055196;28;20182;-70
2022/11/29 09:06:39;;;;;;;7.90;5.60;;;16.20;62.10;;;;;;5055534;28;20209;-70
2022/11/29 09:09:05;;;;;;;7.43;5.43;;;16.30;62.10;;;;;;5054591;28;20230;-70
2022/11/29 09:11:31;;;;;;;6.95;5.30;;;16.40;62.10;;;;;;5054957;28;20218;-69
2022/11/29 09:13:59;;;;;;;7.82;6.13;;;16.40;62.00;;;;;;5055406;28;20214;-69
2022/11/29 09:16:26;;;;;;;6.63;5.57;;;16.40;61.90;;;;;;5054640;28;20229;-69
2022/11/29 09:18:54;;;;;;;7.80;5.30;;;16.50;61.80;;;;;;5054752;28;20322;-69
2022/11/29 09:21:20;;;;;;;8.80;5.90;;;16.40;61.70;;;;;;5055086;28;20281;-69
2022/11/29 09:23:46;;;;;;;6.20;5.60;;;16.50;61.70;;;;;;5054158;28;20496;-69
2022/11/29 09:26:16;;;;;;;7.30;5.95;;;16.40;61.60;;;;;;5055039;28;20236;-69
2022/11/29 09:28:41;;;;;;;7.95;5.50;;;16.40;61.60;;;;;;5054126;28;20633;-70
2022/11/29 09:31:12;;;;;;;6.47;5.32;;;16.40;61.60;;;;;;5054834;28;20206;-69
2022/11/29 09:33:41;;;;;;;6.97;5.45;;;16.50;61.70;;;;;;5054656;28;20396;-70
2022/11/29 09:36:07;;;;;;;6.72;5.57;;;16.50;61.60;;;;;;5054111;28;20194;-69
2022/11/29 09:38:33;;;;;;;6.32;5.22;;;16.50;61.50;;;;;;5054490;28;20698;-69
2022/11/29 09:41:20;;;;;;;7.38;5.57;;;16.50;61.50;;;;;;5054650;28;20175;-69
2022/11/29 09:44:23;;;;;;;6.07;4.70;;;16.50;61.40;;;;;;5053756;28;20210;-68
2022/11/29 09:47:26;;;;;;;6.95;5.30;;;16.60;61.40;;;;;;5054582;28;20178;-69
2022/11/29 09:49:58;;;;;;;6.80;5.25;;;16.50;61.30;;;;;;5053617;28;20209;-69
2022/11/29 09:53:01;;;;;;;4.97;4.45;;;16.50;61.30;;;;;;5053316;28;20187;-69
2022/11/29 09:55:29;;;;;;;5.75;4.47;;;16.50;61.30;;;;;;5054629;28;20533;-69
2022/11/29 09:57:55;;;;;;;5.30;4.70;;;16.50;61.30;;;;;;5053510;28;20171;-69
2022/11/29 10:00:21;;;;;;;5.22;4.72;;;16.60;61.30;;;;;;5053218;28;20178;-68
2022/11/29 10:02:47;;;;;;;7.22;5.20;;;16.60;61.20;;;;;;5052821;28;20544;-69
2022/11/29 10:05:29;;;;;;;7.28;4.82;;;16.60;61.20;;;;;;5053518;28;20179;-70
2022/11/29 10:08:01;;;;;;;6.20;5.18;;;16.70;61.30;;;;;;5052966;28;20182;-70
2022/11/29 10:10:39;;;;;;;5.18;4.35;;;16.60;61.20;;;;;;5052974;28;20221;-70
2022/11/29 10:13:22;;;;;;;8.02;5.40;;;16.60;61.20;;;;;;5052153;28;20236;-70
2022/11/29 10:15:50;;;;;;;5.75;4.63;;;16.60;61.10;;;;;;5053881;28;20167;-67
2022/11/29 10:18:22;;;;;;;5.28;4.30;;;16.60;61.20;;;;;;5053071;28;20895;-67
2022/11/29 10:20:49;;;;;;;4.93;4.45;;;16.60;61.30;;;;;;5052510;28;20266;-67
2022/11/29 10:23:16;;;;;;;6.43;4.75;;;16.60;61.50;;;;;;5053934;28;20175;-67
2022/11/29 10:25:49;;;;;;;6.75;5.22;;;16.60;61.60;;;;;;5052946;28;20250;-67
2022/11/29 10:28:18;;;;;;;6.55;4.90;;;16.70;61.90;;;;;;5052547;28;20209;-67
2022/11/29 10:30:44;;;;;;;5.50;4.20;;;16.70;62.00;;;;;;5052099;28;20245;-67
2022/11/29 10:33:39;;;;;;;5.20;4.70;;;16.60;62.00;;;;;;5053131;28;20172;-67
2022/11/29 10:36:33;;;;;;;5.32;4.25;;;16.60;62.10;;;;;;5048732;28;20181;-67
2022/11/29 10:39:04;;;;;;;4.90;4.40;;;16.60;62.20;;;;;;5052792;28;20175;-67
2022/11/29 10:41:29;;;;;;;5.20;4.70;;;16.60;62.40;;;;;;5052489;28;20559;-67
2022/11/29 10:43:56;;;;;;;5.20;4.43;;;16.60;62.50;;;;;;5052342;28;20749;-69
2022/11/29 10:46:33;;;;;;;5.65;4.22;;;16.60;62.50;;;;;;5058621;28;20171;-69
2022/11/29 10:49:01;;;;;;;6.88;4.53;;;16.70;62.50;;;;;;5052131;28;20238;-66
2022/11/29 10:51:26;;;;;;;6.55;4.32;;;16.70;62.40;;;;;;5035685;28;20190;-65
2022/11/29 10:53:53;;;;;;;7.57;4.30;;;16.70;62.70;;;;;;5052208;28;20181;-67
2022/11/29 10:56:26;;;;;;;4.38;3.85;;;16.80;62.70;;;;;;5052037;28;20187;-67
2022/11/29 10:59:03;;;;;;;7.43;4.78;;;16.80;62.60;;;;;;5051738;28;20221;-66
2022/11/29 11:01:35;;;;;;;5.20;4.10;;;16.70;62.50;;;;;;5052385;28;20171;-66
2022/11/29 11:04:03;;;;;;;6.00;4.05;;;16.80;62.70;;;;;;5035432;28;20646;-66
2022/11/29 11:06:50;;;;;;;8.65;4.40;;;16.80;62.70;;;;;;5053302;28;20178;-68
2022/11/29 11:09:15;;;;;;;7.30;4.05;;;16.80;62.60;;;;;;5052304;28;20276;-67
2022/11/29 11:11:44;;;;;;;4.25;3.65;;;16.90;62.70;;;;;;5052806;28;20583;-66
2022/11/29 11:14:24;;;;;;;5.07;4.30;;;16.90;62.60;;;;;;5035574;28;20183;-66
2022/11/29 11:16:53;;;;;;;5.18;4.57;;;16.90;62.60;;;;;;5052603;28;20174;-64
2022/11/29 11:19:32;;;;;;;6.10;3.55;;;16.90;62.50;;;;;;5051791;28;20262;-66
2022/11/29 11:21:59;;;;;;;6.05;3.83;;;16.90;62.50;;;;;;5051912;28;20183;-66
2022/11/29 11:24:27;;;;;;;5.35;3.55;;;16.90;62.60;;;;;;5050783;28;20175;-68
2022/11/29 11:26:53;;;;;;;5.85;4.00;;;16.90;62.60;;;;;;5051842;28;20195;-67
2022/11/29 11:29:21;;;;;;;6.78;4.70;;;16.90;62.60;;;;;;5033783;28;20224;-67
2022/11/29 11:31:55;;;;;;;4.50;3.60;;;16.70;62.60;;;;;;5049670;28;20665;-68
2022/11/29 11:34:32;;;;;;;5.32;4.10;;;16.80;62.50;;;;;;5052399;28;20225;-67
2022/11/29 11:37:23;;;;;;;4.40;4.00;;;16.80;62.70;;;;;;5051644;28;20645;-68
2022/11/29 11:39:50;;;;;;;8.27;4.50;;;16.80;63.30;;;;;;5052362;28;20179;-67
2022/11/29 11:42:36;;;;;;;7.03;4.78;;;16.70;63.30;;;;;;5052732;28;20262;-67
2022/11/29 11:45:11;;;;;;;4.40;3.50;;;16.80;63.40;;;;;;5052381;28;20186;-68
2022/11/29 11:47:47;;;;;;;6.88;4.13;;;16.80;63.30;;;;;;5054483;28;20175;-66
2022/11/29 11:50:53;;;;;;;5.63;3.60;;;16.70;63.30;;;;;;5050490;28;20324;-67
2022/11/29 11:53:20;;;;;;;7.03;4.35;;;16.60;63.20;;;;;;5047608;28;20186;-67
2022/11/29 11:55:56;;;;;;;4.88;4.35;;;16.70;63.10;;;;;;5052019;28;20182;-67
2022/11/29 11:58:22;;;;;;;5.85;3.92;;;16.70;63.20;;;;;;5050602;28;20197;-67
2022/11/29 12:00:53;;;;;;;5.68;3.80;;;16.70;63.10;;;;;;5052585;28;20529;-67
2022/11/29 12:03:39;;;;;;;6.35;4.53;;;16.80;63.00;;;;;;5051188;28;20178;-67
2022/11/29 12:06:04;;;;;;;3.67;3.28;;;16.80;62.80;;;;;;5050960;28;20171;-67
2022/11/29 12:08:30;;;;;;;3.90;3.50;;;16.80;62.70;;;;;;5052422;28;20519;-67
2022/11/29 12:11:04;;;;;;;4.63;3.92;;;16.80;62.70;;;;;;5050066;28;20260;-67
2022/11/29 12:13:30;;;;;;;4.80;3.70;;;16.90;62.80;;;;;;5052386;28;20186;-68
2022/11/29 12:15:56;;;;;;;6.97;3.80;;;16.80;62.80;;;;;;5034489;28;20181;-68
2022/11/29 12:18:38;;;;;;;4.68;3.80;;;16.90;62.80;;;;;;5050041;28;20215;-68
2022/11/29 12:21:15;;;;;;;6.07;3.35;;;16.80;62.80;;;;;;5054640;28;20711;-69
2022/11/29 12:23:59;;;;;;;3.70;3.40;;;16.80;62.90;;;;;;5056039;28;20186;-70
2022/11/29 12:26:27;;;;;;;4.90;3.90;;;16.90;62.90;;;;;;5038588;28;20304;-68
2022/11/29 12:28:53;;;;;;;4.57;3.80;;;16.80;62.70;;;;;;5054521;28;20186;-67
2022/11/29 12:31:29;;;;;;;3.78;3.17;;;16.90;62.70;;;;;;5056241;28;20269;-68
2022/11/29 12:34:00;;;;;;;5.88;4.28;;;16.90;62.70;;;;;;5053712;28;20637;-70
2022/11/29 12:36:53;;;;;;;6.63;3.83;;;16.90;62.70;;;;;;5055909;28;20637;-66
2022/11/29 12:39:41;;;;;;;5.13;4.25;;;16.80;62.50;;;;;;5055144;28;20182;-66
2022/11/29 12:42:36;;;;;;;5.82;3.53;;;16.80;62.60;;;;;;5055922;28;20172;-67
2022/11/29 12:45:20;;;;;;;4.78;3.22;;;16.80;62.70;;;;;;5050725;28;20183;-67
2022/11/29 12:48:14;;;;;;;5.57;4.28;;;16.80;62.80;;;;;;5054697;28;20577;-67
2022/11/29 12:50:58;;;;;;;8.65;4.30;;;16.80;62.70;;;;;;5054241;28;20238;-67
2022/11/29 12:53:27;;;;;;;6.95;3.25;;;16.70;62.70;;;;;;5053749;28;20175;-67
2022/11/29 12:56:05;;;;;;;5.47;3.85;;;16.80;62.80;;;;;;5055220;28;20220;-66
2022/11/29 12:58:56;;;;;;;6.45;3.60;;;16.80;62.90;;;;;;5054358;28;20259;-66
2022/11/29 13:01:47;;;;;;;4.38;3.20;;;16.80;62.90;;;;;;5054621;28;20646;-66
2022/11/29 13:04:22;;;;;;;5.30;3.35;;;16.80;62.90;;;;;;5054136;28;20309;-66
2022/11/29 13:07:20;;;;;;;4.25;3.15;;;16.70;62.90;;;;;;5054241;28;20171;-68
2022/11/29 13:10:13;;;;;;;5.75;3.42;;;16.70;63.10;;;;;;5035045;28;20701;-67
2022/11/29 13:12:45;;;;;;;4.60;3.22;;;16.70;63.10;;;;;;5053944;28;20178;-67
2022/11/29 13:15:15;;;;;;;4.93;3.47;;;16.70;63.20;;;;;;5039536;28;20205;-67
2022/11/29 13:18:00;;;;;;;3.78;3.08;;;16.70;63.30;;;;;;5058891;28;20211;-68
2022/11/29 13:20:44;;;;;;;5.10;3.03;;;16.70;63.20;;;;;;5074674;28;20299;-67
2022/11/29 13:23:24;;;;;;;5.38;3.83;;;16.70;63.20;;;;;;5067031;28;20181;-66
2022/11/29 13:25:51;;;;;;;3.75;3.10;;;16.70;63.20;;;;;;5054675;28;20171;-66
2022/11/29 13:28:46;;;;;;;5.85;3.63;;;16.70;63.20;;;;;;5053285;28;20612;-67
2022/11/29 13:31:14;;;;;;;5.05;3.33;;;16.80;63.20;;;;;;5052598;28;20214;-69